New Richmond, IN (47967)

10:52 AM EDT on August 19, 2017 (GMT -0400)
Hudson Farms | | Change Station

Elev 787 ft 40.16 °N, 86.88 °W | Updated 5 seconds ago

Clear
Clear
74.3 °F
Feels Like 75 °F
N
2.0
Wind Variable Wind from North
Gusts 5.0 mph

Today
High -- | Low -- °F
--% Chance of Precip.
Yesterday
High -- | Low -- °F
Precip. -- in
Pressure 29.95 in
Visibility 10.0 miles
Clouds Clear
Heat Index 75 °F
Dew Point 68 °F
Humidity 80%
Rainfall 0.00 in
Snow Depth Not available.
7:03 AM 8:38 PM
Waning Crescent, 6% visible
METAR KLAF 191354Z 34004KT 10SM CLR 23/19 A2996 RMK AO2 SLP140 T02280189
Pressure 29.95 in
Visibility 10.0 miles
Clouds Clear
Heat Index 75 °F
Dew Point 68 °F
Humidity 80%
Rainfall 0.00 in
Snow Depth Not available.
7:03 AM 8:38 PM
Waning Crescent, 6% visible
METAR KLAF 191354Z 34004KT 10SM CLR 23/19 A2996 RMK AO2 SLP140 T02280189

Get Severe Weather Alerts

Thanks for signing up!

Be on the lookout for a verification email in your inbox.

You'll start receiving the daily forecast at 6 AM.

×

10-Day Weather Forecast

Almanac

Astronomy

Aug. 19, 2017 Rise Set
Actual Time
Civil Twilight
Nautical Twilight
Astronomical Twilight
Moon
Length of Visible Light
Length of Day
Tomorrow will be .
, % of the Moon is Illuminated

Today's Extremes

State Highs State Lows

Community

WunderPhotos

Category 6

Welcome to Category 6. This is the collective home for Weather Underground's featured writeups by Dr. Jeff Masters (right), Bob Henson (left), Chris Burt, and other regular contributors.

Nearby

Air Quality

  Air Quality AQ Index Pollutant
Not available.

Snow Depth

Station Depth Elevation

Earthquake Activity

City Distance Mag. Time & Date
Minimum magnitude displayed is 2.5.

Coastal Water Temperatures

Place Temperature

Stations

Nearby Weather Stations

Station Location Temp. Windchill Dew Point Humidity Wind Precip. Elev Updated Type
                   

Watches & Warnings

There are currently no watches in effect.